Time;durP1;ratioP1;P1;durP2;ratioP2;P2;SDS_P1;SDS_P2;PMS_P1;PMS_P2;Temp;Humidity;BMP_temperature;BMP_pressure;BME280_temperature;BME280_humidity;BME280_pressure;Samples;Min_cycle;Max_cycle;Signal;HPM_P1;HPM_P2
2022/10/08 00:00:51;;;;;;;22.27;10.20;;;;;;;6.18;82.54;100626.98;1694587;84;21508;-73
2022/10/08 00:03:18;;;;;;;14.98;9.08;;;;;;;6.17;82.69;100626.58;1688659;84;21244;-73
2022/10/08 00:06:08;;;;;;;14.65;8.55;;;;;;;6.16;82.70;100626.13;1688235;84;22162;-73
2022/10/08 00:08:36;;;;;;;20.35;10.08;;;;;;;6.12;82.47;100621.33;1672653;84;21043;-73
2022/10/08 00:11:15;;;;;;;14.50;9.05;;;;;;;6.11;82.37;100620.02;1688692;84;21569;-72
2022/10/08 00:13:43;;;;;;;15.83;9.35;;;;;;;6.08;82.37;100620.02;1689118;84;21110;-72
2022/10/08 00:16:20;;;;;;;18.20;10.25;;;;;;;6.04;82.45;100616.53;1697181;84;21234;-73
2022/10/08 00:18:48;;;;;;;16.27;9.68;;;;;;;6.02;82.49;100617.38;1695558;83;22332;-73
2022/10/08 00:21:19;;;;;;;21.17;11.65;;;;;;;5.98;82.54;100612.59;1699313;84;21489;-73
2022/10/08 00:23:47;;;;;;;22.13;13.60;;;;;;;5.95;82.56;100614.74;1698941;84;21611;-74
2022/10/08 00:26:15;;;;;;;30.20;15.83;;;;;;;5.95;82.50;100616.05;1699520;84;21111;-73
2022/10/08 00:28:44;;;;;;;37.28;18.70;;;;;;;5.93;82.70;100610.37;1719342;83;21253;-73
2022/10/08 00:31:15;;;;;;;41.50;19.90;;;;;;;5.91;83.04;100604.27;1719345;83;20971;-73
2022/10/08 00:33:41;;;;;;;30.65;16.25;;;;;;;5.90;83.59;100598.19;1686693;85;21519;-73
2022/10/08 00:36:11;;;;;;;29.72;14.60;;;;;;;5.90;83.68;100599.50;1719384;83;21506;-73
2022/10/08 00:38:39;;;;;;;29.10;15.55;;;;;;;5.91;83.54;100605.14;1686960;85;21624;-73
2022/10/08 00:41:07;;;;;;;26.10;13.88;;;;;;;5.91;83.26;100597.30;1719024;83;21301;-74
2022/10/08 00:43:48;;;;;;;30.97;15.05;;;;;;;5.89;83.25;100585.98;1686772;85;21118;-73
2022/10/08 00:46:30;;;;;;;38.60;15.80;;;;;;;5.88;83.10;100584.23;1719262;83;21018;-74
2022/10/08 00:49:04;;;;;;;30.25;15.28;;;;;;;5.85;83.13;100580.34;1687004;85;21133;-74
2022/10/08 00:51:32;;;;;;;25.27;13.78;;;;;;;5.84;83.27;100576.41;1719328;83;22036;-73
2022/10/08 00:54:02;;;;;;;35.35;16.73;;;;;;;5.83;83.28;100572.91;1686936;85;21173;-73
2022/10/08 00:56:31;;;;;;;32.30;15.53;;;;;;;5.83;83.36;100575.52;1720568;83;21102;-74
2022/10/08 00:58:57;;;;;;;30.05;16.00;;;;;;;5.81;83.48;100568.13;1686786;85;21567;-73
2022/10/08 01:01:23;;;;;;;26.68;15.00;;;;;;;5.79;83.53;100565.09;1686983;85;21559;-74
2022/10/08 01:03:50;;;;;;;24.30;14.53;;;;;;;5.77;83.42;100567.69;1686973;85;21557;-73
2022/10/08 01:06:33;;;;;;;23.73;14.15;;;;;;;5.74;83.33;100567.68;1687193;85;21534;-73
2022/10/08 01:09:24;;;;;;;28.32;14.35;;;;;;;5.74;83.26;100566.37;1719310;83;21043;-72
2022/10/08 01:12:15;;;;;;;33.90;14.25;;;;;;;5.72;83.35;100565.51;1687121;84;21086;-72
2022/10/08 01:14:59;;;;;;;39.83;15.20;;;;;;;5.69;83.39;100561.58;1719383;83;21043;-73
2022/10/08 01:17:48;;;;;;;27.15;14.30;;;;;;;5.67;83.56;100565.94;1719152;83;21114;-73
2022/10/08 01:20:26;;;;;;;27.40;13.05;;;;;;;5.66;83.55;100565.48;1690244;84;21519;-73
2022/10/08 01:23:04;;;;;;;28.70;14.38;;;;;;;5.64;83.53;100560.70;1723541;83;21200;-74
2022/10/08 01:25:53;;;;;;;25.43;13.35;;;;;;;5.64;83.64;100566.78;1724186;83;21078;-73
2022/10/08 01:28:33;;;;;;;26.68;12.33;;;;;;;5.59;83.57;100562.84;1691182;84;21149;-73
2022/10/08 01:31:18;;;;;;;21.95;11.75;;;;;;;5.58;83.62;100562.43;1703126;83;21063;-73
2022/10/08 01:33:57;;;;;;;24.95;13.03;;;;;;;5.56;83.63;100559.36;1690584;84;21172;-73
2022/10/08 01:36:24;;;;;;;25.50;12.70;;;;;;;5.53;83.59;100557.62;1702330;83;21363;-73
2022/10/08 01:38:54;;;;;;;26.20;12.25;;;;;;;5.54;83.74;100559.80;1691081;84;21129;-73
2022/10/08 01:41:23;;;;;;;27.65;11.35;;;;;;;5.51;84.00;100563.26;1703130;83;21067;-74
2022/10/08 01:43:58;;;;;;;23.80;11.65;;;;;;;5.50;84.18;100561.53;1702906;83;21157;-73
2022/10/08 01:46:26;;;;;;;;;;;;;;;5.50;84.53;100557.62;1692959;84;21277;-73
2022/10/08 01:48:52;;;;;;;21.65;10.20;;;;;;;5.50;84.56;100558.92;1722923;83;20232;-73
2022/10/08 01:51:35;;;;;;;29.40;11.05;;;;;;;5.50;84.45;100558.92;1691231;84;21067;-73
2022/10/08 01:54:02;;;;;;;17.73;9.63;;;;;;;5.49;84.27;100565.44;1691331;84;22192;-72
2022/10/08 01:56:31;;;;;;;19.82;9.53;;;;;;;5.45;84.21;100564.56;1690991;84;21112;-73
2022/10/08 01:59:07;;;;;;;15.35;9.10;;;;;;;5.44;84.15;100564.11;1723746;83;21432;-73
2022/10/08 02:02:00;;;;;;;16.00;8.80;;;;;;;5.42;84.10;100561.94;1691183;84;21082;-73
2022/10/08 02:04:32;;;;;;;13.93;8.90;;;;;;;5.40;83.91;100567.59;1703085;84;21074;-73
2022/10/08 02:07:09;;;;;;;14.83;8.45;;;;;;;5.40;83.97;100559.77;1703476;83;21107;-73
2022/10/08 02:09:39;;;;;;;19.70;8.23;;;;;;;5.39;83.86;100565.84;1703671;83;21016;-74
2022/10/08 02:12:06;;;;;;;15.68;7.65;;;;;;;5.35;83.88;100558.87;1702917;84;21978;-73
2022/10/08 02:14:36;;;;;;;12.30;7.40;;;;;;;5.33;83.96;100564.50;1723811;83;21030;-73
2022/10/08 02:17:28;;;;;;;15.30;7.58;;;;;;;5.31;84.06;100559.72;1690958;84;21071;-73
2022/10/08 02:20:37;;;;;;;14.05;7.53;;;;;;;5.30;83.91;100563.22;1712872;83;21136;-73
2022/10/08 02:23:18;;;;;;;13.03;7.37;;;;;;;5.29;84.11;100566.67;1645113;86;21149;-73
2022/10/08 02:26:03;;;;;;;18.05;7.62;;;;;;;5.25;84.26;100561.88;1700644;84;21824;-73
2022/10/08 02:28:35;;;;;;;16.67;7.28;;;;;;;5.23;84.42;100561.42;1665027;85;21039;-72
2022/10/08 02:31:26;;;;;;;16.15;7.10;;;;;;;5.23;84.58;100557.09;1702697;84;21021;-73
2022/10/08 02:34:13;;;;;;;9.73;5.80;;;;;;;5.27;85.28;100561.89;1664739;85;21495;-72
2022/10/08 02:36:44;;;;;;;10.13;6.03;;;;;;;5.30;85.45;100558.86;1703099;83;21488;-73
2022/10/08 02:39:11;;;;;;;13.58;5.17;;;;;;;5.35;86.13;100557.12;1664793;85;21171;-73
2022/10/08 02:41:49;;;;;;;10.78;6.15;;;;;;;5.39;86.51;100561.48;1703283;84;21606;-73
2022/10/08 02:44:33;;;;;;;14.05;4.62;;;;;;;5.46;87.88;100554.55;1664813;85;21064;-73
2022/10/08 02:47:00;;;;;;;11.68;4.10;;;;;;;5.56;88.72;100560.66;1703609;83;21147;-73
2022/10/08 02:49:31;;;;;;;8.53;3.92;;;;;;;5.65;90.16;100559.81;1648370;85;21067;-73
2022/10/08 02:51:57;;;;;;;9.55;4.60;;;;;;;5.73;91.11;100558.98;1665170;85;21264;-73
2022/10/08 02:54:24;;;;;;;9.03;3.67;;;;;;;5.84;92.89;100558.98;1671150;85;21056;-73
2022/10/08 02:56:56;;;;;;;12.28;4.28;;;;;;;5.97;93.56;100559.03;1703057;84;21032;-74
2022/10/08 02:59:24;;;;;;;10.45;4.33;;;;;;;6.08;94.15;100556.00;1664269;85;21154;-73
2022/10/08 03:02:05;;;;;;;8.03;4.28;;;;;;;6.16;94.87;100558.19;1666841;85;21108;-72
2022/10/08 03:04:35;;;;;;;6.60;3.90;;;;;;;6.22;94.67;100554.69;1700164;84;21195;-73
2022/10/08 03:07:02;;;;;;;8.63;3.65;;;;;;;6.27;94.52;100555.14;1664324;85;21068;-72
2022/10/08 03:09:33;;;;;;;8.98;4.28;;;;;;;6.32;94.11;100558.63;1615670;86;21094;-73
2022/10/08 03:12:00;;;;;;;12.65;4.47;;;;;;;6.39;94.87;100558.59;1664638;85;21569;-72
2022/10/08 03:14:27;;;;;;;11.55;3.90;;;;;;;6.45;95.58;100555.55;1665571;85;20968;-72
2022/10/08 03:16:54;;;;;;;8.60;4.00;;;;;;;6.56;96.42;100562.08;1703194;84;21938;-72
2022/10/08 03:19:20;;;;;;;17.48;4.80;;;;;;;6.67;96.77;100556.82;1668959;84;21681;-73
2022/10/08 03:21:48;;;;;;;10.03;4.30;;;;;;;6.77;97.14;100556.38;1716382;83;21487;-73
2022/10/08 03:24:16;;;;;;;10.30;4.12;;;;;;;6.84;97.45;100554.16;1683648;85;21016;-73
2022/10/08 03:26:42;;;;;;;10.80;3.45;;;;;;;6.91;97.72;100554.61;1684330;85;20999;-73
2022/10/08 03:29:10;;;;;;;10.88;3.90;;;;;;;7.02;97.82;100553.25;1715999;83;21144;-73
2022/10/08 03:31:36;;;;;;;15.05;4.15;;;;;;;7.10;97.90;100554.09;1684127;85;21126;-73
2022/10/08 03:34:03;;;;;;;13.40;4.12;;;;;;;7.16;98.08;100555.39;1715926;83;21004;-73
2022/10/08 03:36:29;;;;;;;11.95;3.98;;;;;;;7.23;98.19;100556.23;1716191;83;21075;-74
2022/10/08 03:38:56;;;;;;;16.30;4.33;;;;;;;7.29;98.25;100557.50;1715950;83;21051;-73
2022/10/08 03:41:24;;;;;;;14.33;4.20;;;;;;;7.37;98.25;100558.34;1684046;85;21268;-73
2022/10/08 03:43:52;;;;;;;7.90;3.58;;;;;;;7.43;98.22;100557.01;1716136;83;21543;-73
2022/10/08 03:46:19;;;;;;;9.15;3.90;;;;;;;7.48;98.06;100552.17;1716102;83;21953;-73
2022/10/08 03:48:48;;;;;;;7.22;3.45;;;;;;;7.51;98.00;100545.62;1716205;83;21443;-72
2022/10/08 03:51:14;;;;;;;10.58;3.83;;;;;;;7.56;97.68;100549.08;1716020;83;21003;-73
2022/10/08 03:53:42;;;;;;;10.85;3.87;;;;;;;7.61;97.69;100552.09;1684203;85;21204;-73
2022/10/08 03:56:16;;;;;;;10.93;3.83;;;;;;;7.63;97.54;100548.16;1716079;83;21050;-73
2022/10/08 03:58:43;;;;;;;11.33;3.87;;;;;;;7.65;97.39;100549.04;1684093;85;26761;-73
2022/10/08 04:01:15;;;;;;;17.50;4.58;;;;;;;7.70;97.32;100550.30;1716461;83;21094;-73
2022/10/08 04:03:44;;;;;;;11.38;3.98;;;;;;;7.75;97.31;100553.34;1716310;83;21122;-73
2022/10/08 04:06:11;;;;;;;13.25;4.33;;;;;;;7.78;97.31;100545.47;1716344;83;21233;-73
2022/10/08 04:08:37;;;;;;;10.28;3.83;;;;;;;7.80;97.03;100546.31;1716373;83;21079;-73
2022/10/08 04:11:06;;;;;;;8.90;3.37;;;;;;;7.83;96.75;100541.92;1716073;83;21150;-72
2022/10/08 04:13:33;;;;;;;10.03;3.58;;;;;;;7.86;96.52;100542.77;1716382;83;21035;-73
2022/10/08 04:16:16;;;;;;;8.13;4.12;;;;;;;7.88;96.12;100544.08;1716180;83;21534;-73
2022/10/08 04:18:42;;;;;;;16.42;4.22;;;;;;;7.88;95.96;100544.08;1716187;83;22006;-72
2022/10/08 04:21:16;;;;;;;10.20;4.30;;;;;;;7.91;95.90;100543.61;1703536;83;21103;-73
2022/10/08 04:23:43;;;;;;;7.35;3.87;;;;;;;7.96;95.73;100548.83;1700039;84;21574;-72
2022/10/08 04:26:11;;;;;;;11.43;3.42;;;;;;;7.97;95.39;100545.34;1664963;85;21162;-72
2022/10/08 04:28:41;;;;;;;12.40;3.77;;;;;;;7.99;95.29;100550.12;1665687;85;21135;-72
2022/10/08 04:31:11;;;;;;;8.88;3.50;;;;;;;8.01;95.32;100548.34;1700461;84;21292;-73
2022/10/08 04:33:39;;;;;;;8.60;3.40;;;;;;;8.06;95.21;100546.56;1665428;85;21106;-72
2022/10/08 04:36:15;;;;;;;7.42;3.20;;;;;;;8.11;95.07;100544.77;1702806;84;21079;-72
2022/10/08 04:38:43;;;;;;;8.23;3.50;;;;;;;8.15;94.98;100547.81;1665297;85;21027;-72
2022/10/08 04:41:13;;;;;;;5.85;2.85;;;;;;;8.21;94.94;100549.95;1702964;84;20972;-72
2022/10/08 04:43:40;;;;;;;8.50;3.25;;;;;;;8.25;94.65;100552.52;1665792;85;21508;-71
2022/10/08 04:46:08;;;;;;;10.82;3.40;;;;;;;8.30;94.40;100549.41;1667734;85;22146;-72
2022/10/08 04:48:35;;;;;;;8.63;3.45;;;;;;;8.35;94.15;100549.37;1664104;85;21617;-73
2022/10/08 04:51:03;;;;;;;11.18;4.42;;;;;;;8.37;94.06;100550.22;1702853;84;21607;-72
2022/10/08 04:53:30;;;;;;;7.42;3.47;;;;;;;8.39;93.83;100556.34;1664033;85;21075;-72
2022/10/08 04:55:57;;;;;;;9.60;4.08;;;;;;;8.42;93.76;100553.67;1665505;85;21135;-72
2022/10/08 04:58:25;;;;;;;9.80;3.62;;;;;;;8.44;93.47;100548.45;1664339;85;22236;-72
2022/10/08 05:00:51;;;;;;;9.93;3.85;;;;;;;8.44;93.31;100546.72;1703425;84;21071;-72
2022/10/08 05:03:18;;;;;;;8.23;3.47;;;;;;;8.46;93.05;100546.25;1665465;85;21174;-72
2022/10/08 05:05:45;;;;;;;9.70;4.05;;;;;;;8.48;92.90;100551.04;1703464;84;21190;-73
2022/10/08 05:08:12;;;;;;;15.68;4.28;;;;;;;8.53;92.80;100555.80;1664882;85;21189;-73
2022/10/08 05:10:45;;;;;;;10.28;4.08;;;;;;;8.57;92.75;100555.32;1703051;84;21095;-72
2022/10/08 05:13:12;;;;;;;13.83;4.62;;;;;;;8.60;92.87;100550.05;1665797;85;21051;-72
2022/10/08 05:15:38;;;;;;;9.28;3.62;;;;;;;8.66;92.89;100551.77;1664893;85;21052;-72
2022/10/08 05:18:05;;;;;;;10.28;3.87;;;;;;;8.72;92.88;100555.61;1703193;83;21067;-72
2022/10/08 05:20:31;;;;;;;7.67;3.92;;;;;;;8.80;92.72;100552.47;1672167;84;21141;-72
2022/10/08 05:22:58;;;;;;;11.85;3.98;;;;;;;8.88;92.79;100553.27;1716499;83;21082;-72
2022/10/08 05:25:24;;;;;;;8.50;3.30;;;;;;;8.97;92.80;100548.80;1716128;83;21106;-73
2022/10/08 05:27:51;;;;;;;10.53;3.22;;;;;;;9.05;92.54;100545.64;1716185;83;21111;-72
2022/10/08 05:30:18;;;;;;;12.15;3.60;;;;;;;9.16;92.30;100553.38;1716067;83;21158;-72
2022/10/08 05:32:45;;;;;;;11.33;3.25;;;;;;;9.29;92.04;100549.26;1683971;85;21300;-72
2022/10/08 05:35:11;;;;;;;9.98;3.98;;;;;;;9.38;91.84;100544.78;1716058;83;21091;-74
2022/10/08 05:37:39;;;;;;;12.60;4.10;;;;;;;9.48;91.68;100545.97;1716287;83;21511;-72
2022/10/08 05:40:07;;;;;;;13.62;3.40;;;;;;;9.60;91.44;100544.03;1715821;83;21681;-72
2022/10/08 05:42:34;;;;;;;9.05;3.12;;;;;;;9.72;91.41;100543.02;1716030;83;21016;-73
2022/10/08 05:45:00;;;;;;;11.48;3.52;;;;;;;9.84;91.13;100537.58;1683804;85;21899;-72
2022/10/08 05:47:27;;;;;;;6.75;3.27;;;;;;;9.94;90.64;100537.84;1715997;83;21672;-73
2022/10/08 05:49:53;;;;;;;15.25;3.92;;;;;;;10.05;90.63;100540.30;1683612;85;21584;-72
2022/10/08 05:52:20;;;;;;;8.45;3.52;;;;;;;10.16;90.44;100547.57;1683701;85;21584;-73
2022/10/08 05:54:46;;;;;;;7.67;2.92;;;;;;;10.30;90.17;100546.48;1683778;85;21561;-72
2022/10/08 05:57:13;;;;;;;6.47;2.98;;;;;;;10.43;89.88;100542.77;1716173;83;21581;-72
2022/10/08 05:59:40;;;;;;;7.60;3.00;;;;;;;10.56;89.23;100542.98;1715708;83;21051;-72
2022/10/08 06:02:09;;;;;;;5.83;2.72;;;;;;;10.67;88.45;100543.23;1716060;83;21058;-72
2022/10/08 06:04:37;;;;;;;11.22;3.12;;;;;;;10.80;87.92;100549.14;1662146;85;21086;-72
2022/10/08 06:07:04;;;;;;;6.83;2.95;;;;;;;10.92;86.93;100544.95;1716087;83;21070;-72
2022/10/08 06:09:31;;;;;;;10.50;3.37;;;;;;;11.03;86.58;100544.30;1716026;83;21243;-71
2022/10/08 06:11:58;;;;;;;10.00;3.65;;;;;;;11.14;86.04;100538.34;1684025;85;21110;-72
2022/10/08 06:14:26;;;;;;;7.08;3.02;;;;;;;11.25;84.69;100549.13;1715657;83;21082;-72
2022/10/08 06:16:53;;;;;;;9.08;2.95;;;;;;;11.34;83.90;100534.43;1716355;83;21198;-72
2022/10/08 06:19:21;;;;;;;7.42;2.62;;;;;;;11.43;83.10;100525.02;1716070;83;21047;-72
2022/10/08 06:21:48;;;;;;;7.75;2.98;;;;;;;11.50;81.60;100527.07;1722415;83;21235;-72
2022/10/08 06:24:15;;;;;;;9.20;2.70;;;;;;;11.59;81.54;100528.63;1688262;84;21067;-73
2022/10/08 06:26:43;;;;;;;9.68;2.70;;;;;;;11.69;81.07;100524.87;1689633;84;21086;-72
2022/10/08 06:29:14;;;;;;;5.10;2.50;;;;;;;11.81;80.97;100517.98;1689080;84;21079;-73
2022/10/08 06:31:41;;;;;;;5.78;2.10;;;;;;;11.95;80.57;100518.14;1688898;84;21110;-72
2022/10/08 06:34:09;;;;;;;9.63;2.85;;;;;;;12.07;80.30;100516.09;1711784;83;21109;-71
2022/10/08 06:36:36;;;;;;;7.50;2.22;;;;;;;12.19;79.75;100521.97;1714004;83;21052;-71
2022/10/08 06:39:10;;;;;;;17.20;2.58;;;;;;;12.33;78.72;100521.61;1689091;84;21075;-70
2022/10/08 06:41:36;;;;;;;6.20;2.40;;;;;;;12.42;78.21;100529.27;1713922;83;21077;-72
2022/10/08 06:44:05;;;;;;;7.83;1.92;;;;;;;12.50;77.63;100520.70;1689475;84;21133;-70
2022/10/08 06:46:32;;;;;;;7.58;2.98;;;;;;;12.62;77.11;100524.36;1689351;84;21251;-71
2022/10/08 06:49:00;;;;;;;8.03;3.08;;;;;;;12.77;76.60;100523.05;1714277;83;21598;-72
2022/10/08 06:51:26;;;;;;;6.35;2.65;;;;;;;12.89;75.14;100523.16;1714306;83;20962;-72
2022/10/08 06:53:55;;;;;;;6.87;2.47;;;;;;;12.96;74.99;100518.14;1689404;84;21015;-72
2022/10/08 06:56:22;;;;;;;4.58;2.45;;;;;;;13.07;74.66;100522.25;1714322;83;20983;-72
2022/10/08 06:58:49;;;;;;;9.20;3.35;;;;;;;13.14;73.61;100513.22;1689303;84;21244;-71
2022/10/08 07:01:18;;;;;;;7.92;3.05;;;;;;;13.24;73.74;100520.43;1689597;84;21059;-72
2022/10/08 07:03:49;;;;;;;12.07;2.45;;;;;;;13.34;73.83;100510.02;1714141;83;20989;-71
2022/10/08 07:06:17;;;;;;;5.50;2.58;;;;;;;13.47;72.90;100511.38;1689530;84;21122;-71
2022/10/08 07:08:44;;;;;;;6.30;3.02;;;;;;;13.58;71.97;100518.12;1689258;84;21094;-71
2022/10/08 07:11:16;;;;;;;11.00;3.02;;;;;;;13.67;71.69;100509.91;1688803;84;21198;-71
2022/10/08 07:13:43;;;;;;;6.40;3.02;;;;;;;13.77;71.77;100510.03;1714208;83;21124;-71
2022/10/08 07:16:14;;;;;;;17.23;3.52;;;;;;;13.89;71.57;100515.37;1714250;83;21108;-72
2022/10/08 07:18:41;;;;;;;8.68;3.40;;;;;;;14.00;70.70;100506.61;1689154;84;21443;-72
2022/10/08 07:21:11;;;;;;;12.65;3.25;;;;;;;14.09;69.31;100507.64;1689048;84;21082;-71
2022/10/08 07:23:37;;;;;;;4.85;2.98;;;;;;;14.13;69.35;100500.00;1667099;84;21558;-73
2022/10/08 07:26:18;;;;;;;14.00;2.87;;;;;;;14.22;68.61;100504.58;1688429;84;21086;-71
2022/10/08 07:29:07;;;;;;;6.25;3.37;;;;;;;14.31;68.20;100502.48;1693507;84;21055;-72
2022/10/08 07:31:36;;;;;;;7.70;3.05;;;;;;;14.40;67.84;100493.36;1688760;84;21087;-72
2022/10/08 07:34:07;;;;;;;10.32;3.50;;;;;;;14.46;65.64;100490.97;1689042;84;21094;-72
2022/10/08 07:36:34;;;;;;;7.65;2.75;;;;;;;14.43;65.15;100491.93;1688861;84;21068;-71
2022/10/08 07:39:11;;;;;;;7.12;2.87;;;;;;;14.41;65.46;100491.13;1688683;84;21542;-72
2022/10/08 07:41:37;;;;;;;9.95;3.47;;;;;;;14.43;64.92;100487.95;1688788;84;21110;-72
2022/10/08 07:44:04;;;;;;;9.63;3.15;;;;;;;14.45;64.19;100488.76;1689200;84;20984;-71
2022/10/08 07:46:33;;;;;;;7.17;2.95;;;;;;;14.52;64.76;100483.27;1693472;84;21125;-71
2022/10/08 07:49:00;;;;;;;5.75;2.40;;;;;;;14.62;64.49;100484.22;1693443;84;21266;-72
2022/10/08 07:51:28;;;;;;;7.70;2.60;;;;;;;14.72;63.76;100483.44;1720406;83;21516;-71
2022/10/08 07:53:55;;;;;;;5.60;3.17;;;;;;;14.80;64.44;100476.08;1721724;83;21063;-72
2022/10/08 07:56:22;;;;;;;10.55;2.90;;;;;;;14.91;65.21;100477.46;1721604;83;21015;-72
2022/10/08 07:58:48;;;;;;;7.85;2.87;;;;;;;15.06;65.02;100474.23;1721238;83;21046;-72
2022/10/08 08:01:19;;;;;;;10.82;2.60;;;;;;;15.21;65.28;100465.72;1721816;83;21549;-71
2022/10/08 08:04:01;;;;;;;5.55;3.10;;;;;;;15.39;64.44;100463.27;1721571;83;21051;-71
2022/10/08 08:06:28;;;;;;;9.78;3.50;;;;;;;15.56;63.52;100458.14;1688375;84;21122;-72
2022/10/08 08:08:55;;;;;;;13.03;3.87;;;;;;;15.74;63.43;100462.31;1689033;84;21126;-72
2022/10/08 08:11:23;;;;;;;8.70;3.10;;;;;;;15.88;62.85;100457.31;1695455;84;21154;-72
2022/10/08 08:13:51;;;;;;;12.82;3.12;;;;;;;16.01;62.73;100448.86;1695408;84;22343;-72
2022/10/08 08:16:26;;;;;;;6.83;2.77;;;;;;;16.14;62.57;100451.40;1694299;84;21158;-71
2022/10/08 08:18:55;;;;;;;10.13;2.90;;;;;;;16.27;61.84;100453.92;1688740;84;21079;-72
2022/10/08 08:21:25;;;;;;;4.92;2.50;;;;;;;16.38;60.51;100445.95;1688745;84;21106;-71
2022/10/08 08:23:53;;;;;;;7.55;2.27;;;;;;;16.47;59.75;100452.17;1688609;84;21035;-72
2022/10/08 08:26:24;;;;;;;8.88;2.45;;;;;;;16.55;59.02;100448.72;1688978;84;22753;-71
2022/10/08 08:28:56;;;;;;;5.40;2.47;;;;;;;16.63;58.69;100447.06;1689098;84;21471;-72
2022/10/08 08:31:31;;;;;;;3.15;2.00;;;;;;;16.64;57.18;100444.33;1689170;84;21029;-71
2022/10/08 08:34:00;;;;;;;5.80;2.10;;;;;;;16.68;57.11;100441.92;1694806;84;21077;-71
2022/10/08 08:36:33;;;;;;;5.47;2.08;;;;;;;16.76;56.55;100442.03;1720778;83;21090;-72
2022/10/08 08:39:01;;;;;;;5.83;2.30;;;;;;;16.79;55.17;100445.88;1721706;83;25945;-71
2022/10/08 08:41:54;;;;;;;4.05;2.00;;;;;;;16.75;54.14;100442.98;1688823;84;21324;-71
2022/10/08 08:44:26;;;;;;;5.03;1.98;;;;;;;16.68;53.94;100440.59;1688973;84;21542;-72
2022/10/08 08:47:12;;;;;;;6.00;2.45;;;;;;;16.61;55.01;100443.14;1686867;84;21636;-72
2022/10/08 08:50:00;;;;;;;4.97;2.20;;;;;;;16.53;54.02;100437.30;1721352;83;21031;-72
2022/10/08 08:52:32;;;;;;;8.60;2.65;;;;;;;16.47;53.82;100434.91;1721296;83;21141;-71
2022/10/08 08:55:00;;;;;;;12.60;2.30;;;;;;;16.41;55.13;100432.06;1689053;84;21027;-71
2022/10/08 08:57:59;;;;;;;6.40;1.90;;;;;;;16.51;55.23;100429.87;1688758;84;21075;-71
2022/10/08 09:00:36;;;;;;;7.00;2.02;;;;;;;16.61;55.00;100420.55;1689101;84;21027;-71
2022/10/08 09:03:22;;;;;;;9.53;2.10;;;;;;;16.80;54.28;100411.74;1666960;84;21125;-72
2022/10/08 09:05:55;;;;;;;6.00;2.00;;;;;;;16.94;54.44;100413.30;1695592;84;21041;-74
2022/10/08 09:08:33;;;;;;;4.78;2.10;;;;;;;17.09;53.72;100409.06;1720277;83;21059;-74
2022/10/08 09:11:02;;;;;;;5.20;2.33;;;;;;;17.23;52.66;100399.09;1719192;83;21479;-74
2022/10/08 09:13:46;;;;;;;3.40;1.47;;;;;;;17.29;52.72;100401.47;1688103;84;21063;-74
2022/10/08 09:16:15;;;;;;;2.98;1.62;;;;;;;17.39;52.50;100402.74;1693832;84;22028;-74
2022/10/08 09:18:46;;;;;;;4.12;1.75;;;;;;;17.46;51.58;100401.50;1688820;84;21259;-74
2022/10/08 09:21:12;;;;;;;7.30;1.82;;;;;;;17.57;51.94;100396.99;1689386;83;21492;-74
2022/10/08 09:23:40;;;;;;;7.60;2.00;;;;;;;17.70;50.30;100395.05;1690917;84;21506;-74
2022/10/08 09:26:17;;;;;;;8.30;1.32;;;;;;;17.83;50.52;100390.34;1703586;84;21067;-74
2022/10/08 09:28:57;;;;;;;5.87;1.82;;;;;;;17.94;49.14;100383.67;1703788;83;21099;-74
2022/10/08 09:31:41;;;;;;;3.58;1.50;;;;;;;18.00;49.39;100382.00;1724087;83;22103;-74
2022/10/08 09:34:17;;;;;;;2.83;1.50;;;;;;;18.08;49.94;100378.47;1690960;84;21076;-74
2022/10/08 09:36:54;;;;;;;4.03;1.60;;;;;;;18.19;48.39;100375.27;1723854;83;21117;-74
2022/10/08 09:39:30;;;;;;;3.58;1.37;;;;;;;18.26;47.21;100372.66;1686724;84;21047;-74
2022/10/08 09:42:13;;;;;;;3.00;1.47;;;;;;;18.35;46.90;100369.97;1703690;83;21079;-74
2022/10/08 09:44:49;;;;;;;4.60;1.50;;;;;;;18.43;46.13;100358.92;1691021;84;21591;-73
2022/10/08 09:47:18;;;;;;;6.47;1.87;;;;;;;18.51;46.80;100365.55;1690784;84;24816;-74
2022/10/08 09:49:50;;;;;;;3.22;1.42;;;;;;;18.60;47.06;100358.00;1703119;84;21028;-74
2022/10/08 09:52:28;;;;;;;2.45;1.10;;;;;;;18.72;47.31;100367.98;1691220;84;21011;-73
2022/10/08 09:55:09;;;;;;;;;;;;;;;18.84;46.89;100355.81;1692977;84;21051;-74
2022/10/08 09:57:43;;;;;;;2.33;1.22;;;;;;;18.96;45.92;100355.12;1724116;83;21028;-73
2022/10/08 10:00:36;;;;;;;8.08;1.90;;;;;;;19.04;44.72;100352.03;1723724;81;21015;-73
2022/10/08 10:03:05;;;;;;;3.70;2.08;;;;;;;19.02;43.85;100346.78;1691388;84;21015;-74
2022/10/08 10:05:33;;;;;;;8.13;2.30;;;;;;;19.00;43.65;100343.83;1703126;84;21012;-75
2022/10/08 10:07:59;;;;;;;5.12;1.90;;;;;;;18.91;44.21;100340.73;1691067;84;21588;-74
2022/10/08 10:10:35;;;;;;;2.30;1.27;;;;;;;18.87;45.04;100343.16;1690527;84;21223;-74
2022/10/08 10:13:18;;;;;;;6.50;1.50;;;;;;;18.92;45.15;100334.91;1706936;83;21115;-73
2022/10/08 10:15:51;;;;;;;2.90;1.47;;;;;;;19.04;44.61;100330.70;1702475;83;21008;-74
2022/10/08 10:18:24;;;;;;;6.10;1.98;;;;;;;19.06;42.97;100324.80;1703994;83;21618;-74
2022/10/08 10:20:57;;;;;;;2.75;1.70;;;;;;;18.88;43.41;100322.23;1723614;83;21056;-74
2022/10/08 10:23:38;;;;;;;3.70;1.32;;;;;;;18.80;43.67;100313.77;1705821;83;21130;-74
2022/10/08 10:26:18;;;;;;;3.87;1.35;;;;;;;18.90;44.46;100308.34;1666215;85;21079;-74
2022/10/08 10:29:10;;;;;;;2.92;1.32;;;;;;;19.09;43.49;100301.95;1703241;83;21087;-74
2022/10/08 10:31:41;;;;;;;4.47;1.50;;;;;;;19.24;43.72;100297.05;1653921;85;22095;-74
2022/10/08 10:34:22;;;;;;;3.65;1.45;;;;;;;19.43;43.51;100294.64;1664988;85;22288;-74
2022/10/08 10:37:00;;;;;;;2.10;1.25;;;;;;;19.58;42.00;100287.05;1666117;85;21409;-74
2022/10/08 10:39:44;;;;;;;6.17;1.67;;;;;;;19.62;43.27;100289.94;1664795;85;21091;-73
2022/10/08 10:42:31;;;;;;;3.45;2.45;;;;;;;19.72;42.93;100279.57;1657723;86;21034;-74
2022/10/08 10:45:04;;;;;;;3.10;1.30;;;;;;;19.78;40.88;100277.87;1663632;85;21578;-74
2022/10/08 10:47:33;;;;;;;4.25;1.60;;;;;;;19.66;40.69;100278.11;1702507;84;21147;-73
2022/10/08 10:49:59;;;;;;;5.62;1.50;;;;;;;19.59;41.50;100268.77;1664577;85;21224;-74
2022/10/08 10:52:49;;;;;;;3.20;1.47;;;;;;;19.66;42.10;100270.10;1665146;85;21109;-73
2022/10/08 10:55:45;;;;;;;3.45;1.47;;;;;;;19.72;42.19;100258.21;1657962;86;21677;-74
2022/10/08 10:58:42;;;;;;;7.17;1.70;;;;;;;19.84;42.44;100261.98;1657627;86;21088;-74
2022/10/08 11:01:49;;;;;;;6.45;1.95;;;;;;;19.94;41.62;100256.91;1657751;86;21040;-73
2022/10/08 11:04:53;;;;;;;3.17;1.70;;;;;;;20.05;42.07;100254.43;1663362;85;21180;-74
2022/10/08 11:07:31;;;;;;;7.78;2.05;;;;;;;20.27;42.38;100243.25;1700090;84;21064;-73
2022/10/08 11:10:08;;;;;;;4.92;2.17;;;;;;;20.48;42.98;100244.20;1665571;85;21178;-74
2022/10/08 11:13:13;;;;;;;5.05;2.47;;;;;;;20.63;43.45;100237.88;1665031;85;21108;-74
2022/10/08 11:15:45;;;;;;;10.18;2.45;;;;;;;20.80;43.37;100239.94;1664844;85;21087;-73
2022/10/08 11:18:35;;;;;;;5.90;2.47;;;;;;;20.94;43.38;100233.18;1664266;85;21579;-74
2022/10/08 11:21:28;;;;;;;4.17;2.10;;;;;;;21.07;43.86;100225.20;1665695;85;21635;-73
2022/10/08 11:24:38;;;;;;;4.80;2.52;;;;;;;21.22;43.59;100225.99;1703213;83;21095;-73
2022/10/08 11:27:12;;;;;;;5.80;2.52;;;;;;;21.35;43.18;100220.19;1665728;85;20965;-74
2022/10/08 11:29:57;;;;;;;6.75;2.85;;;;;;;21.47;43.29;100209.99;1703479;83;21043;-74
2022/10/08 11:32:25;;;;;;;6.72;2.30;;;;;;;21.61;42.67;100205.50;1663642;85;21557;-74
2022/10/08 11:35:06;;;;;;;6.20;2.55;;;;;;;21.68;42.40;100197.41;1700650;84;21134;-74
2022/10/08 11:37:57;;;;;;;4.53;2.35;;;;;;;21.72;42.25;100194.91;1654752;86;21117;-74
2022/10/08 11:40:48;;;;;;;7.50;2.40;;;;;;;21.81;42.63;100194.73;1700774;84;21519;-74
2022/10/08 11:43:38;;;;;;;7.33;2.40;;;;;;;21.86;41.96;100192.09;1666083;85;21056;-74
2022/10/08 11:46:21;;;;;;;6.30;2.55;;;;;;;21.99;41.77;100187.18;1703470;84;21199;-74
2022/10/08 11:48:50;;;;;;;4.17;2.45;;;;;;;22.08;41.40;100186.05;1654032;85;21072;-74
2022/10/08 11:51:25;;;;;;;6.62;2.67;;;;;;;22.17;41.41;100191.22;1666004;85;21016;-74